ADDS METAR Data INFO
IDs: Format: Raw Decoded Include TAF

Data at: 1843 UTC 17 Oct 2017

KMYV 171753Z AUTO 31006KT 10SM CLR 21/03 A3013 RMK AO2 SLP205 T02060028 10206 20067 53005
KMYV 171653Z AUTO 33006KT 10SM CLR 18/03 A3012 RMK AO2 SLP203 T01830028
KMYV 171553Z AUTO 36005KT 9SM CLR 14/04 A3012 RMK AO2 SLP201 T01390039
KMYV 171453Z AUTO 35003KT 8SM CLR 08/04 A3011 RMK AO2 SLP200 T00780044 53013
KMYV 171353Z AUTO 33004KT 10SM CLR 08/04 A3009 RMK AO2 SLP191 T00780039
KMYV 171253Z AUTO 35005KT 10SM CLR 09/04 A3008 RMK AO2 SLP188 T00940039
KMYV 171153Z AUTO 00000KT 10SM CLR 07/02 A3007 RMK AO2 SLP187 T00670022 10133 20067 55002
KMYV 171053Z AUTO 00000KT 10SM CLR 09/01 A3007 RMK AO2 SLP186 T00890011
KMYV 170953Z AUTO 00000KT 10SM CLR 08/01 A3008 RMK AO2 SLP189 T00830006
KMYV 170853Z AUTO 07004KT 10SM CLR 13/01 A3008 RMK AO2 SLP189 T01330006 50000
KMYV 170753Z AUTO 00000KT 10SM CLR 10/01 A3008 RMK AO2 SLP189 T01000011 402830056
KMYV 170653Z AUTO 09004KT 10SM CLR 11/02 A3008 RMK AO2 SLP190 T01060022
KMYV 170553Z AUTO 00000KT 10SM CLR 13/02 A3008 RMK AO2 SLP188 T01280022 10283 20100 53012
KMYV 170453Z AUTO 00000KT 9SM CLR 13/03 A3006 RMK AO2 SLP182 T01330033
KMYV 170353Z AUTO 08004KT 8SM CLR 15/04 A3004 RMK AO2 SLP177 T01500039
KMYV 170253Z AUTO 00000KT 8SM CLR 16/05 A3004 RMK AO2 SLP176 T01560050 55002
KMYV 170153Z AUTO 00000KT 8SM CLR 18/02 A3004 RMK AO2 SLP174 T01830022
KMYV 170053Z AUTO 04003KT 9SM CLR 26/02 A3004 RMK AO2 SLP174 T02610022
KMYV 162353Z AUTO 36003KT 10SM CLR 28/02 A3005 RMK AO2 SLP178 T02830017 10283 20200 56019
KMYV 162253Z AUTO 9SM CLR 28/M01 A3007 RMK AO2 SLP185 T02831006
KMYV 162153Z AUTO 31003KT 10SM CLR 28/M01 A3008 RMK AO2 SLP189 T02781006
KMYV 162053Z AUTO 34006KT 10SM CLR 27/00 A3010 RMK AO2 SLP197 T02720000 58026
KMYV 161953Z AUTO 32006KT 10SM CLR 24/00 A3014 RMK AO2 SLP209 T02440000
KMYV 161853Z AUTO 30007KT 10SM CLR 22/02 A3016 RMK AO2 SLP218 T02220017
KMYV 161753Z AUTO 35003KT 10SM CLR 20/00 A3018 RMK AO2 SLP223 T02000000 10200 20056 50003
KMYV 161653Z AUTO 36004KT 10SM CLR 17/03 A3019 RMK AO2 SLP228 T01670028
KMYV 161553Z AUTO 36005KT 10SM CLR 13/02 A3019 RMK AO2 SLP225 T01330022
KMYV 161453Z AUTO 36004KT 10SM CLR 09/03 A3017 RMK AO2 SLP219 T00940028 53009
KMYV 161353Z AUTO 36003KT 10SM CLR 07/03 A3016 RMK AO2 SLP216 T00720028
KMYV 161253Z AUTO 32003KT 10SM CLR 07/03 A3015 RMK AO2 SLP213 T00670028
KMYV 161153Z AUTO 00000KT 10SM CLR 07/03 A3014 RMK AO2 SLP210 T00670028 10117 20067 55003
KMYV 161053Z AUTO 35004KT 10SM CLR 08/05 A3013 RMK AO2 SLP208 T00830050
KMYV 160953Z AUTO 02004KT 10SM CLR 10/06 A3015 RMK AO2 SLP213 T01000056
KMYV 160853Z AUTO 01003KT 8SM CLR 07/04 A3015 RMK AO2 SLP213 T00720044 53003
KMYV 160753Z AUTO 00000KT 7SM CLR 10/06 A3015 RMK AO2 SLP211 T01000056 402830050
KMYV 160653Z AUTO 00000KT 8SM CLR 11/04 A3014 RMK AO2 SLP210 T01060039